Time;durP1;ratioP1;P1;durP2;ratioP2;P2;SDS_P1;SDS_P2;PMS_P1;PMS_P2;Temp;Humidity;BMP_temperature;BMP_pressure;BME280_temperature;BME280_humidity;BME280_pressure;Samples;Min_cycle;Max_cycle;Signal;HPM_P1;HPM_P2
2021/11/23 00:01:45;;;;;;;10.35;6.10;;;;;;;-0.05;86.13;99011.78;4992123;28;20038;-59
2021/11/23 00:04:10;;;;;;;12.02;6.30;;;;;;;-0.08;85.20;99006.59;4991861;28;20050;-59
2021/11/23 00:06:37;;;;;;;9.07;5.22;;;;;;;-0.08;87.67;98996.34;4997398;28;20111;-60
2021/11/23 00:09:03;;;;;;;10.70;6.18;;;;;;;-0.02;86.93;98996.44;4989299;28;20038;-59
2021/11/23 00:11:29;;;;;;;15.43;6.80;;;;;;;-0.11;87.61;99006.53;4988238;28;21004;-59
2021/11/23 00:13:55;;;;;;;11.63;6.30;;;;;;;-0.04;86.93;99006.69;4990968;28;20089;-59
2021/11/23 00:16:20;;;;;;;11.32;6.18;;;;;;;-0.26;87.36;98992.63;4989107;28;20041;-60
2021/11/23 00:18:47;;;;;;;9.88;6.13;;;;;;;0.05;85.79;98995.69;4989326;28;20032;-60
2021/11/23 00:21:14;;;;;;;10.52;6.18;;;;;;;-0.16;87.49;98992.78;4989571;28;20061;-60
2021/11/23 00:23:40;;;;;;;9.10;5.40;;;;;;;-0.20;86.47;99002.13;4991365;28;20117;-58
2021/11/23 00:26:05;;;;;;;12.25;5.93;;;;;;;-0.70;89.48;99002.88;4988364;28;20120;-59
2021/11/23 00:28:31;;;;;;;9.13;5.30;;;;;;;-0.53;90.95;98997.19;4990957;28;20034;-61
2021/11/23 00:30:58;;;;;;;9.63;5.50;;;;;;;-0.39;90.00;99000.91;4990790;28;20037;-59
2021/11/23 00:33:23;;;;;;;10.50;5.72;;;;;;;-0.25;88.23;98999.47;4988195;28;20026;-59
2021/11/23 00:35:49;;;;;;;10.93;5.32;;;;;;;-0.27;85.56;99003.69;4991543;28;20403;-59
2021/11/23 00:38:16;;;;;;;6.65;4.38;;;;;;;-0.16;86.03;99000.47;4991763;28;20149;-64
2021/11/23 00:40:43;;;;;;;8.45;5.25;;;;;;;-0.23;85.74;99005.47;4987037;28;20125;-60
2021/11/23 00:43:09;;;;;;;8.50;4.88;;;;;;;-0.57;87.49;99015.91;4989176;28;20551;-59
2021/11/23 00:45:35;;;;;;;8.95;4.93;;;;;;;-0.62;89.95;99011.56;4990410;28;20038;-59
2021/11/23 00:48:03;;;;;;;11.10;4.13;;;;;;;-0.65;88.60;99015.78;4989700;28;20029;-60
2021/11/23 00:50:32;;;;;;;8.63;4.78;;;;;;;-0.45;87.93;99016.16;4992278;28;20117;-59
2021/11/23 00:52:58;;;;;;;8.52;4.82;;;;;;;-0.54;88.76;99014.28;4989353;28;20087;-59
2021/11/23 00:55:24;;;;;;;10.85;5.28;;;;;;;-0.46;88.60;99014.44;4986785;28;20030;-59
2021/11/23 00:57:50;;;;;;;9.63;5.70;;;;;;;-0.46;87.75;99014.44;4987333;28;20920;-59
2021/11/23 01:00:16;;;;;;;10.07;5.85;;;;;;;-0.38;85.61;99015.47;4991659;28;20477;-59
2021/11/23 01:02:42;;;;;;;12.35;5.97;;;;;;;-0.66;87.70;99016.59;4988655;28;20384;-61
2021/11/23 01:05:08;;;;;;;11.82;5.95;;;;;;;-0.63;86.89;99016.66;4987846;28;20062;-59
2021/11/23 01:07:34;;;;;;;9.40;5.53;;;;;;;-0.70;86.38;99015.69;4986965;28;20037;-59
2021/11/23 01:09:59;;;;;;;9.25;5.80;;;;;;;-0.41;89.21;99020.50;4990456;28;20430;-60
2021/11/23 01:12:25;;;;;;;10.02;5.57;;;;;;;-0.66;87.87;99011.47;4995896;28;20657;-59
2021/11/23 01:14:51;;;;;;;8.02;5.03;;;;;;;-0.76;89.54;99014.69;4989405;28;20129;-60
2021/11/23 01:17:17;;;;;;;8.43;4.72;;;;;;;-0.41;88.98;99012.81;4988113;28;20687;-60
2021/11/23 01:19:43;;;;;;;9.27;4.35;;;;;;;-0.51;87.25;99009.22;4989905;28;20148;-59
2021/11/23 01:22:10;;;;;;;8.20;4.53;;;;;;;-0.41;84.50;99010.25;4988333;28;20038;-59
2021/11/23 01:24:35;;;;;;;8.35;4.72;;;;;;;-0.53;85.61;99012.56;4990038;28;20054;-59
2021/11/23 01:27:01;;;;;;;8.20;4.72;;;;;;;-0.49;85.29;99004.13;4986990;28;20040;-62
2021/11/23 01:29:26;;;;;;;10.90;5.80;;;;;;;-0.52;85.74;99015.19;4989217;28;20128;-60
2021/11/23 01:31:52;;;;;;;9.95;5.45;;;;;;;-0.65;85.46;99018.34;4988157;28;20041;-60
2021/11/23 01:34:19;;;;;;;11.70;5.95;;;;;;;-0.98;87.91;99022.78;4989319;28;20037;-58
2021/11/23 01:36:49;;;;;;;11.85;5.95;;;;;;;-0.88;87.38;99015.28;4988776;28;20052;-60
2021/11/23 01:39:16;;;;;;;10.10;5.93;;;;;;;-0.60;85.78;99012.47;4989459;28;20612;-59
2021/11/23 01:41:42;;;;;;;9.90;5.38;;;;;;;-0.62;84.38;99014.13;4985244;28;20053;-59
2021/11/23 01:44:08;;;;;;;8.48;5.30;;;;;;;-1.00;85.68;99016.75;4988835;28;20021;-58
2021/11/23 01:46:34;;;;;;;9.68;5.60;;;;;;;-0.63;85.18;99017.53;4986782;28;20556;-59
2021/11/23 01:48:59;;;;;;;8.98;5.50;;;;;;;-0.71;84.84;99013.94;4987516;28;20030;-60
2021/11/23 01:51:25;;;;;;;9.75;5.78;;;;;;;-0.73;84.10;99025.88;4984630;28;20042;-60
2021/11/23 01:53:51;;;;;;;9.52;5.75;;;;;;;-0.93;84.78;99022.03;4988271;28;20659;-59
2021/11/23 01:56:16;;;;;;;10.27;6.13;;;;;;;-1.19;88.21;99014.66;4987428;28;20048;-58
2021/11/23 01:58:42;;;;;;;11.88;5.70;;;;;;;-1.52;90.19;99015.59;4988527;28;20037;-59
2021/11/23 02:01:08;;;;;;;13.30;5.90;;;;;;;-1.06;87.96;99021.75;4988361;28;20518;-58
2021/11/23 02:03:35;;;;;;;9.95;5.35;;;;;;;-0.96;84.86;99025.38;4986009;28;20033;-58
2021/11/23 02:06:01;;;;;;;11.68;6.20;;;;;;;-1.20;88.07;99018.03;4986571;28;20064;-59
2021/11/23 02:08:27;;;;;;;11.75;6.07;;;;;;;-0.98;84.84;99019.34;4988653;28;20646;-60
2021/11/23 02:10:52;;;;;;;11.73;6.38;;;;;;;-1.00;84.18;99010.78;4987036;28;20038;-58
2021/11/23 02:13:19;;;;;;;11.43;6.13;;;;;;;-0.92;84.09;99010.94;4987187;28;20018;-58
2021/11/23 02:15:45;;;;;;;10.93;5.72;;;;;;;-1.17;84.28;99018.09;4986415;28;20145;-59
2021/11/23 02:18:16;;;;;;;8.65;4.65;;;;;;;-1.19;85.04;99015.50;4986777;28;20545;-59
2021/11/23 02:20:42;;;;;;;10.00;4.88;;;;;;;-1.26;87.87;99010.22;4993944;28;20038;-60
2021/11/23 02:23:07;;;;;;;6.75;3.80;;;;;;;-1.09;86.05;99024.25;4986500;28;20496;-59
2021/11/23 02:25:33;;;;;;;10.35;5.57;;;;;;;-0.95;86.48;99023.69;4987938;28;20045;-57
2021/11/23 02:27:59;;;;;;;12.18;6.03;;;;;;;-0.90;84.91;99019.50;4987241;28;20101;-58
2021/11/23 02:30:25;;;;;;;9.65;6.05;;;;;;;-0.84;86.12;99011.97;4985851;28;20038;-58
2021/11/23 02:32:53;;;;;;;7.07;3.70;;;;;;;-0.98;84.56;98998.88;4986316;28;20034;-58
2021/11/23 02:35:24;;;;;;;3.88;2.45;;;;;;;-0.75;84.64;98988.22;4987992;28;20038;-57
2021/11/23 02:37:53;;;;;;;5.10;3.23;;;;;;;-0.79;83.74;98990.75;4987073;28;20030;-59
2021/11/23 02:40:20;;;;;;;11.05;6.05;;;;;;;-0.84;83.27;98991.50;4986329;28;20796;-59
2021/11/23 02:42:46;;;;;;;12.75;6.32;;;;;;;-0.99;84.08;98995.44;4987097;28;20041;-57
2021/11/23 02:45:13;;;;;;;12.50;5.78;;;;;;;-1.03;84.05;98985.97;4985004;28;20452;-59
2021/11/23 02:47:39;;;;;;;13.98;6.40;;;;;;;-1.21;84.22;98995.84;4986094;28;20026;-58
2021/11/23 02:50:08;;;;;;;13.60;6.53;;;;;;;-1.24;85.46;98995.75;4984125;28;20865;-58
2021/11/23 02:52:34;;;;;;;8.40;4.90;;;;;;;-1.15;84.40;99000.22;4986560;28;20682;-57
2021/11/23 02:55:01;;;;;;;13.63;5.70;;;;;;;-1.14;83.95;99005.34;4987487;28;20030;-60
2021/11/23 02:57:28;;;;;;;9.52;5.43;;;;;;;-1.23;85.64;99000.91;4987500;28;20846;-57
2021/11/23 02:59:53;;;;;;;13.25;6.13;;;;;;;-1.35;84.50;99008.31;4985240;28;20049;-58
2021/11/23 03:02:19;;;;;;;10.00;5.30;;;;;;;-1.28;84.78;99006.75;4985358;28;20181;-58
2021/11/23 03:04:58;;;;;;;9.25;5.00;;;;;;;-1.26;83.93;99011.06;4985814;28;20025;-58
2021/11/23 03:07:24;;;;;;;10.95;5.28;;;;;;;-1.17;83.41;99018.09;4986190;28;20117;-58
2021/11/23 03:09:50;;;;;;;9.02;4.70;;;;;;;-1.29;83.77;99012.69;4986864;28;20026;-63
2021/11/23 03:12:22;;;;;;;8.00;4.50;;;;;;;-1.42;83.26;99017.53;4987691;28;20455;-58
2021/11/23 03:14:48;;;;;;;9.63;5.50;;;;;;;-1.75;86.55;99013.38;4988229;28;20392;-60
2021/11/23 03:17:16;;;;;;;13.52;5.10;;;;;;;-1.50;84.04;99013.09;4990654;28;20411;-58
2021/11/23 03:19:42;;;;;;;10.77;4.95;;;;;;;-1.59;84.51;99008.59;4986797;28;20385;-59
2021/11/23 03:22:09;;;;;;;9.05;5.07;;;;;;;-1.67;85.95;99016.09;4986215;28;20496;-59
2021/11/23 03:24:35;;;;;;;7.63;4.50;;;;;;;-1.83;84.19;99012.31;4988568;28;20050;-59
2021/11/23 03:27:01;;;;;;;8.65;5.00;;;;;;;-1.84;86.61;99023.38;4986804;28;20073;-60
2021/11/23 03:29:27;;;;;;;9.60;4.90;;;;;;;-2.02;87.78;99021.22;4990691;28;20297;-58
2021/11/23 03:31:53;;;;;;;8.35;5.10;;;;;;;-1.88;86.27;99018.13;4992358;28;20100;-58
2021/11/23 03:34:19;;;;;;;9.65;5.32;;;;;;;-1.84;84.72;99022.50;4991044;28;20030;-59
2021/11/23 03:36:45;;;;;;;8.93;5.20;;;;;;;-1.82;87.24;99016.59;4991506;28;20683;-58
2021/11/23 03:39:12;;;;;;;8.45;4.88;;;;;;;-1.91;87.00;99018.94;4991005;28;20155;-59
2021/11/23 03:41:37;;;;;;;10.00;5.00;;;;;;;-1.70;84.57;99022.84;4990405;28;20990;-59
2021/11/23 03:44:04;;;;;;;13.55;5.25;;;;;;;-1.77;86.32;99019.25;4990745;28;20146;-59
2021/11/23 03:46:30;;;;;;;9.77;5.45;;;;;;;-1.89;87.99;99021.50;4991279;28;20034;-59
2021/11/23 03:48:55;;;;;;;9.63;5.63;;;;;;;-1.82;89.33;99026.84;4990785;28;20038;-60
2021/11/23 03:51:21;;;;;;;10.95;6.40;;;;;;;-1.84;89.36;99028.50;4992105;28;20045;-59
2021/11/23 03:53:47;;;;;;;11.85;6.18;;;;;;;-1.71;88.53;99037.31;4992643;28;20104;-59
2021/11/23 03:56:13;;;;;;;12.50;5.53;;;;;;;-1.71;87.94;99026.22;4990910;28;20049;-60
2021/11/23 03:58:39;;;;;;;9.15;5.65;;;;;;;-1.57;87.69;99040.22;4992719;28;20026;-58
2021/11/23 04:01:05;;;;;;;9.48;5.43;;;;;;;-1.66;87.57;99033.16;4993131;28;20040;-59
2021/11/23 04:03:31;;;;;;;9.70;5.78;;;;;;;-1.60;89.85;99035.00;4991916;28;20046;-59
2021/11/23 04:05:57;;;;;;;10.23;6.10;;;;;;;-1.72;87.90;99043.25;4990731;28;20026;-58
2021/11/23 04:08:23;;;;;;;12.20;6.40;;;;;;;-1.83;89.38;99035.31;4991828;28;20026;-58
2021/11/23 04:10:49;;;;;;;10.95;6.13;;;;;;;-1.41;89.02;99034.63;4991996;28;20027;-59
2021/11/23 04:13:16;;;;;;;10.20;6.00;;;;;;;-1.33;88.02;99036.50;4990024;28;20033;-60
2021/11/23 04:15:41;;;;;;;7.93;5.10;;;;;;;-1.32;84.70;99038.22;4991483;28;20121;-58
2021/11/23 04:18:08;;;;;;;4.82;2.63;;;;;;;-1.43;84.12;99033.72;4994228;28;20192;-58
2021/11/23 04:20:34;;;;;;;6.82;3.80;;;;;;;-1.68;87.37;99022.03;4995020;28;20042;-58
2021/11/23 04:22:59;;;;;;;9.10;4.60;;;;;;;-1.53;88.00;99021.53;4990086;28;20373;-59
2021/11/23 04:25:25;;;;;;;8.85;4.93;;;;;;;-1.05;85.62;99023.50;4988906;28;20029;-59
2021/11/23 04:27:52;;;;;;;8.98;5.25;;;;;;;-1.15;84.14;99023.25;4991998;28;20400;-60
2021/11/23 04:30:17;;;;;;;10.05;5.68;;;;;;;-1.25;83.70;99025.63;4989870;28;20034;-58
2021/11/23 04:32:43;;;;;;;9.90;5.68;;;;;;;-1.22;83.42;99022.25;4990338;28;20033;-59
2021/11/23 04:35:09;;;;;;;12.02;5.95;;;;;;;-1.37;84.28;99026.19;4989531;28;20036;-59
2021/11/23 04:37:35;;;;;;;12.27;6.25;;;;;;;-1.36;85.72;99025.38;4990614;28;20026;-58
2021/11/23 04:40:02;;;;;;;9.63;5.60;;;;;;;-1.28;86.42;99029.81;4990692;28;20032;-59
2021/11/23 04:42:28;;;;;;;9.32;5.50;;;;;;;-1.36;86.23;99032.16;4989895;28;20057;-58
2021/11/23 04:44:53;;;;;;;7.57;3.50;;;;;;;-1.41;83.61;99023.53;4989987;28;20026;-58
2021/11/23 04:47:19;;;;;;;6.57;4.13;;;;;;;-1.46;84.96;99027.69;4989100;28;20735;-62
2021/11/23 04:49:44;;;;;;;8.23;4.95;;;;;;;-1.13;84.11;99025.00;4988741;28;20026;-58
2021/11/23 04:52:10;;;;;;;10.15;5.72;;;;;;;-1.38;83.75;99029.59;4988658;28;20046;-58
2021/11/23 04:54:35;;;;;;;14.68;5.75;;;;;;;-1.46;85.73;99028.53;4989408;28;20432;-58
2021/11/23 04:57:01;;;;;;;6.50;4.22;;;;;;;-1.47;83.06;99028.50;4989431;28;20057;-58
2021/11/23 04:59:26;;;;;;;8.80;5.43;;;;;;;-1.44;82.97;99037.09;4990187;28;20026;-59
2021/11/23 05:01:52;;;;;;;9.55;5.35;;;;;;;-1.55;81.99;99038.53;4988585;28;20053;-58
2021/11/23 05:04:17;;;;;;;11.55;5.45;;;;;;;-1.58;82.34;99038.47;4989966;28;20033;-60
2021/11/23 05:06:42;;;;;;;8.85;5.03;;;;;;;-1.54;83.39;99042.84;4987079;28;20045;-59
2021/11/23 05:09:08;;;;;;;10.02;5.55;;;;;;;-1.49;83.15;99045.50;4989357;28;20019;-59
2021/11/23 05:11:36;;;;;;;9.80;5.10;;;;;;;-1.49;83.01;99038.72;4988152;28;20753;-58
2021/11/23 05:14:01;;;;;;;11.10;5.43;;;;;;;-1.63;82.33;99047.75;4988274;28;20026;-58
2021/11/23 05:16:27;;;;;;;13.05;5.60;;;;;;;-1.87;85.10;99048.84;4988988;28;20464;-58
2021/11/23 05:18:53;;;;;;;11.32;5.18;;;;;;;-1.78;84.93;99059.31;4997151;28;20713;-58
2021/11/23 05:21:18;;;;;;;14.82;7.43;;;;;;;-1.66;84.02;99053.63;4989267;28;20042;-59
2021/11/23 05:23:44;;;;;;;13.82;7.47;;;;;;;-1.67;82.20;99051.91;4989891;28;20049;-59
2021/11/23 05:26:09;;;;;;;12.85;7.30;;;;;;;-1.73;82.09;99059.41;4987597;28;20065;-58
2021/11/23 05:28:34;;;;;;;10.95;6.30;;;;;;;-1.94;84.16;99058.06;4988524;28;20022;-59
2021/11/23 05:31:00;;;;;;;10.35;6.28;;;;;;;-1.77;84.65;99058.47;4989505;28;20038;-59
2021/11/23 05:33:25;;;;;;;12.85;6.97;;;;;;;-1.76;83.27;99061.94;4990727;28;21033;-59
2021/11/23 05:35:51;;;;;;;12.98;6.90;;;;;;;-1.86;81.56;99063.38;4987792;28;20623;-58
2021/11/23 05:38:18;;;;;;;9.50;5.63;;;;;;;-2.06;82.26;99055.19;4988852;28;20026;-58
2021/11/23 05:40:45;;;;;;;14.10;7.32;;;;;;;-2.07;83.54;99050.03;4986470;28;20045;-60
2021/11/23 05:43:12;;;;;;;11.20;6.72;;;;;;;-1.93;81.80;99053.81;4987555;28;20026;-59
2021/11/23 05:45:37;;;;;;;11.65;6.57;;;;;;;-2.09;82.55;99056.81;4987710;28;20052;-58
2021/11/23 05:48:03;;;;;;;11.73;6.78;;;;;;;-2.12;84.10;99070.34;4988224;28;20140;-59
2021/11/23 05:50:28;;;;;;;12.73;6.90;;;;;;;-2.28;85.09;99066.50;4988282;28;20041;-59
2021/11/23 05:52:54;;;;;;;11.00;6.30;;;;;;;-2.22;85.78;99070.97;4987474;28;20034;-58
2021/11/23 05:55:19;;;;;;;13.57;6.40;;;;;;;-2.33;84.22;99075.75;4988570;28;20133;-58
2021/11/23 05:57:45;;;;;;;11.90;6.13;;;;;;;-2.22;83.19;99073.50;4989804;28;20542;-58
2021/11/23 06:00:10;;;;;;;13.38;6.25;;;;;;;-2.14;83.15;99079.69;4988817;28;20081;-58
2021/11/23 06:02:36;;;;;;;11.80;5.93;;;;;;;-2.22;83.06;99070.97;4987105;28;20033;-58
2021/11/23 06:05:03;;;;;;;13.25;5.82;;;;;;;-2.39;82.05;99078.13;4998075;28;20085;-58
2021/11/23 06:07:28;;;;;;;10.13;5.55;;;;;;;-2.23;83.90;99085.41;4985495;28;20631;-59
2021/11/23 06:09:54;;;;;;;11.70;6.45;;;;;;;-2.25;83.66;99074.28;4989179;28;20030;-58
2021/11/23 06:12:19;;;;;;;14.02;7.30;;;;;;;-2.43;82.12;99082.28;4990653;28;20519;-60
2021/11/23 06:14:46;;;;;;;12.98;6.93;;;;;;;-2.24;82.97;99078.56;4991369;28;20037;-58
2021/11/23 06:17:12;;;;;;;13.63;6.95;;;;;;;-2.24;82.49;99093.03;4990809;28;20049;-58
2021/11/23 06:19:38;;;;;;;16.35;6.47;;;;;;;-2.44;83.44;99095.06;4991945;28;20057;-59
2021/11/23 06:22:05;;;;;;;12.95;7.32;;;;;;;-2.45;83.77;99098.41;4989736;28;20065;-59
2021/11/23 06:24:30;;;;;;;19.65;10.13;;;;;;;-2.61;85.71;99103.09;4988553;28;20026;-58
2021/11/23 06:26:56;;;;;;;10.32;5.60;;;;;;;-2.33;83.49;99104.75;4988406;28;20034;-59
2021/11/23 06:29:21;;;;;;;8.18;4.05;;;;;;;-2.00;87.67;99103.94;4990354;28;20022;-59
2021/11/23 06:31:46;;;;;;;8.32;4.43;;;;;;;-2.04;88.69;99111.47;4988677;28;20136;-58
2021/11/23 06:34:12;;;;;;;5.00;2.85;;;;;;;-1.41;87.33;99118.22;4989058;28;20435;-60
2021/11/23 06:36:37;;;;;;;10.15;3.65;;;;;;;-1.59;84.79;99116.06;4989674;28;20566;-59
2021/11/23 06:39:05;;;;;;;15.18;4.68;;;;;;;-1.42;86.14;99114.78;4991518;28;20018;-59
2021/11/23 06:41:30;;;;;;;15.23;4.57;;;;;;;-1.21;91.27;99122.13;4990592;28;20084;-59
2021/11/23 06:43:57;;;;;;;19.83;4.78;;;;;;;-0.74;89.89;99121.50;4991572;28;20022;-58
2021/11/23 06:46:23;;;;;;;21.73;5.50;;;;;;;-0.26;92.40;99114.81;4988082;28;20886;-59
2021/11/23 06:48:49;;;;;;;16.67;7.85;;;;;;;-0.92;84.01;99126.19;4991088;28;20084;-59
2021/11/23 06:51:14;;;;;;;12.10;6.93;;;;;;;-1.17;81.74;99129.06;4987822;28;20784;-58
2021/11/23 06:53:39;;;;;;;11.18;5.32;;;;;;;-0.97;82.23;99134.66;4989654;28;20018;-60
2021/11/23 06:56:05;;;;;;;8.30;4.10;;;;;;;-0.73;83.80;99142.88;4990455;28;20049;-58
2021/11/23 06:58:30;;;;;;;12.45;6.63;;;;;;;-1.29;84.96;99135.56;4989301;28;20064;-59
2021/11/23 07:00:56;;;;;;;12.82;5.90;;;;;;;-1.02;84.93;99141.34;4987407;28;20046;-59
2021/11/23 07:03:21;;;;;;;12.95;7.68;;;;;;;-0.92;85.46;99146.69;4991490;28;20463;-58
2021/11/23 07:05:47;;;;;;;12.75;6.30;;;;;;;0.02;84.99;99147.00;4991969;28;20539;-59
2021/11/23 07:08:12;;;;;;;19.45;10.25;;;;;;;-0.75;82.51;99150.53;4994317;28;20030;-59
2021/11/23 07:10:38;;;;;;;127.95;12.80;;;;;;;0.67;89.59;99148.19;4994449;28;20042;-58
2021/11/23 07:13:04;;;;;;;1330.53;63.55;;;;;;;1.31;87.45;99145.78;4993532;28;20507;-59
2021/11/23 07:15:30;;;;;;;1999.90;389.77;;;;;;;3.63;100.00;99137.72;4992461;28;20050;-59
2021/11/23 07:17:56;;;;;;;1999.90;629.78;;;;;;;3.32;99.29;99147.00;4993862;28;20030;-59
2021/11/23 07:20:21;;;;;;;1999.90;595.20;;;;;;;3.52;96.62;99139.38;4994219;28;20196;-60
2021/11/23 07:22:47;;;;;;;1999.90;765.75;;;;;;;3.70;98.62;99132.63;4993795;28;20053;-60
2021/11/23 07:25:12;;;;;;;1999.90;714.67;;;;;;;4.96;97.71;99132.88;5001185;28;20434;-59
2021/11/23 07:27:38;;;;;;;1999.90;264.67;;;;;;;4.25;95.28;99137.97;4990932;28;20065;-59
2021/11/23 07:30:05;;;;;;;1999.90;94.00;;;;;;;3.67;88.33;99136.03;4994135;28;20084;-59
2021/11/23 07:32:31;;;;;;;632.83;25.40;;;;;;;2.27;83.41;99138.38;4994098;28;20038;-59
2021/11/23 07:34:56;;;;;;;105.03;9.95;;;;;;;2.50;86.78;99138.63;4992084;28;20034;-60
2021/11/23 07:37:25;;;;;;;9.82;6.03;;;;;;;2.09;81.29;99143.34;4992146;28;20097;-59
2021/11/23 07:39:51;;;;;;;9.88;5.75;;;;;;;1.49;80.94;99148.59;4994420;28;20045;-58
2021/11/23 07:42:17;;;;;;;10.68;6.65;;;;;;;1.63;81.85;99148.78;4991691;28;20043;-60
2021/11/23 07:44:42;;;;;;;11.70;6.95;;;;;;;1.22;79.30;99149.06;4994414;28;20048;-60
2021/11/23 07:47:08;;;;;;;13.50;7.25;;;;;;;1.47;83.28;99154.56;4993136;28;20050;-60
2021/11/23 07:49:33;;;;;;;11.57;6.78;;;;;;;1.32;78.86;99150.94;4991827;28;20080;-59
2021/11/23 07:51:59;;;;;;;13.02;6.90;;;;;;;0.71;79.94;99155.09;4992994;28;20097;-59
2021/11/23 07:54:24;;;;;;;17.38;6.75;;;;;;;1.64;77.25;99147.94;4992158;28;20038;-61
2021/11/23 07:56:50;;;;;;;12.30;7.05;;;;;;;1.58;81.16;99142.72;4993332;28;20053;-58
2021/11/23 07:59:15;;;;;;;11.45;6.47;;;;;;;1.28;79.25;99150.88;4995112;28;20029;-59
2021/11/23 08:01:41;;;;;;;11.07;6.65;;;;;;;1.60;80.14;99151.31;4992057;28;20038;-59
2021/11/23 08:04:06;;;;;;;15.18;7.43;;;;;;;1.32;80.11;99161.22;4993141;28;20037;-59
2021/11/23 08:06:32;;;;;;;15.23;7.50;;;;;;;1.55;80.77;99163.25;4992926;28;20048;-60
2021/11/23 08:08:57;;;;;;;110.43;11.30;;;;;;;1.19;83.77;99166.16;4993202;28;20037;-59
2021/11/23 08:11:23;;;;;;;20.73;7.25;;;;;;;1.41;82.80;99162.19;4991340;28;20045;-59
2021/11/23 08:13:48;;;;;;;16.75;7.70;;;;;;;1.46;82.21;99163.13;4992194;28;20029;-60
2021/11/23 08:16:14;;;;;;;84.00;9.23;;;;;;;1.38;80.20;99165.59;4991316;28;20049;-58
2021/11/23 08:18:39;;;;;;;12.30;6.97;;;;;;;1.72;83.96;99161.75;4992031;28;20730;-58
2021/11/23 08:21:05;;;;;;;14.93;8.02;;;;;;;1.56;80.86;99164.97;4993676;28;20096;-60
2021/11/23 08:23:30;;;;;;;14.15;6.75;;;;;;;1.92;81.70;99163.72;4991695;28;20038;-60
2021/11/23 08:25:56;;;;;;;14.23;8.27;;;;;;;1.54;78.96;99162.41;4992909;28;20449;-60
2021/11/23 08:28:26;;;;;;;14.43;7.68;;;;;;;1.09;79.91;99171.16;4991946;28;20111;-59
2021/11/23 08:30:55;;;;;;;14.63;7.68;;;;;;;1.54;78.90;99171.78;4992108;28;20045;-59
2021/11/23 08:33:22;;;;;;;11.23;6.60;;;;;;;2.09;81.93;99169.94;4990545;28;20107;-59
2021/11/23 08:35:48;;;;;;;21.00;8.00;;;;;;;1.92;77.13;99168.88;4993353;28;20037;-58
2021/11/23 08:38:13;;;;;;;20.52;9.75;;;;;;;1.78;79.86;99170.41;4991760;28;20034;-61
2021/11/23 08:40:39;;;;;;;13.43;7.70;;;;;;;1.90;79.71;99166.28;4992726;28;20038;-58
2021/11/23 08:43:08;;;;;;;15.10;8.50;;;;;;;1.85;78.71;99167.06;4991910;28;20030;-59
2021/11/23 08:45:34;;;;;;;17.55;9.07;;;;;;;2.42;80.95;99160.84;4990894;28;20038;-59
2021/11/23 08:48:00;;;;;;;18.08;8.55;;;;;;;1.78;79.74;99165.25;4991223;28;20076;-58
2021/11/23 08:50:27;;;;;;;15.82;8.35;;;;;;;2.01;80.27;99163.84;4997044;28;20038;-60
2021/11/23 08:52:52;;;;;;;21.83;8.73;;;;;;;2.27;89.62;99160.69;4990611;28;20030;-59
2021/11/23 08:55:18;;;;;;;19.70;8.93;;;;;;;2.87;89.08;99159.56;4992588;28;20030;-58
2021/11/23 08:57:43;;;;;;;19.95;10.15;;;;;;;3.53;85.86;99155.72;4993424;28;20076;-59
2021/11/23 09:00:19;;;;;;;17.75;10.27;;;;;;;3.69;89.81;99162.69;4991497;28;20492;-59
2021/11/23 09:02:48;;;;;;;19.10;9.55;;;;;;;4.54;84.18;99160.41;4991281;28;20030;-60
2021/11/23 09:05:14;;;;;;;99.10;15.63;;;;;;;4.69;79.36;99160.47;4990364;28;20026;-58
2021/11/23 09:07:41;;;;;;;150.57;19.27;;;;;;;3.16;80.47;99148.63;4991375;28;20118;-60
2021/11/23 09:10:10;;;;;;;146.68;16.48;;;;;;;3.67;89.71;99154.94;4991884;28;20035;-58
2021/11/23 09:12:36;;;;;;;41.35;10.88;;;;;;;3.34;80.30;99154.75;4992753;28;20097;-59
2021/11/23 09:15:01;;;;;;;19.27;9.20;;;;;;;4.44;82.97;99165.56;4991781;28;20080;-60
2021/11/23 09:17:27;;;;;;;48.85;12.07;;;;;;;4.85;88.95;99160.47;4990385;28;20070;-60
2021/11/23 09:19:53;;;;;;;20.05;10.73;;;;;;;4.19;76.29;99163.78;4992488;28;20022;-58
2021/11/23 09:22:18;;;;;;;16.73;7.00;;;;;;;6.42;100.00;99170.50;4990731;28;20044;-60
2021/11/23 09:24:44;;;;;;;16.25;6.20;;;;;;;6.98;100.00;99169.25;4990189;28;20030;-59
2021/11/23 09:27:09;;;;;;;20.75;9.82;;;;;;;5.02;75.43;99169.09;4991662;28;20034;-59
2021/11/23 09:29:34;;;;;;;571.47;60.63;;;;;;;4.66;87.25;99168.19;4990657;28;20136;-60
2021/11/23 09:32:01;;;;;;;20.98;11.45;;;;;;;4.10;76.92;99169.78;4991778;28;20060;-60
2021/11/23 09:34:27;;;;;;;17.55;7.47;;;;;;;5.23;98.37;99173.41;5007569;28;20030;-58
2021/11/23 09:36:54;;;;;;;27.80;13.23;;;;;;;4.23;80.50;99171.56;4998998;28;20084;-59
2021/11/23 09:39:20;;;;;;;16.55;7.82;;;;;;;5.30;95.83;99169.94;4990854;28;20030;-59
2021/11/23 09:41:45;;;;;;;17.42;8.32;;;;;;;5.66;76.54;99164.69;4994127;28;20053;-60
2021/11/23 09:44:11;;;;;;;37.25;12.02;;;;;;;6.87;97.11;99171.06;4991929;28;20031;-59
2021/11/23 09:46:39;;;;;;;20.35;8.60;;;;;;;5.33;76.80;99175.13;4990480;28;20034;-59
2021/11/23 09:49:07;;;;;;;13.10;6.00;;;;;;;7.02;81.82;99170.06;4989866;28;20105;-59
2021/11/23 09:51:34;;;;;;;10.95;5.68;;;;;;;6.54;94.90;99173.00;4990696;28;20049;-59
2021/11/23 09:54:01;;;;;;;10.48;6.05;;;;;;;6.94;86.77;99171.00;4989869;28;20061;-58
2021/11/23 09:56:29;;;;;;;16.20;9.93;;;;;;;4.37;74.46;99155.22;4990116;28;20038;-60
2021/11/23 09:58:56;;;;;;;13.75;9.00;;;;;;;4.62;73.71;99153.56;4990302;28;20068;-58
2021/11/23 10:01:24;;;;;;;9.30;5.28;;;;;;;6.23;85.73;99157.63;4990759;28;20133;-60
2021/11/23 10:03:51;;;;;;;14.73;8.75;;;;;;;5.13;81.67;99146.69;4992531;28;20057;-59
2021/11/23 10:06:24;;;;;;;13.15;6.78;;;;;;;6.46;81.09;99146.28;4992852;28;20042;-58
2021/11/23 10:08:52;;;;;;;11.60;5.82;;;;;;;6.15;76.17;99147.28;4991135;28;20033;-60
2021/11/23 10:11:22;;;;;;;15.75;9.27;;;;;;;5.57;81.03;99150.94;4997770;28;20143;-59
2021/11/23 10:14:09;;;;;;;13.98;8.88;;;;;;;5.64;75.17;99145.72;4991241;28;20030;-60
2021/11/23 10:16:39;;;;;;;15.20;8.20;;;;;;;4.80;71.46;99145.81;4987722;28;20125;-59
2021/11/23 10:19:08;;;;;;;12.63;7.35;;;;;;;5.19;72.45;99151.84;4988419;28;20053;-59
2021/11/23 10:21:33;;;;;;;11.05;4.88;;;;;;;6.27;84.52;99140.34;4988641;28;20177;-60
2021/11/23 10:23:59;;;;;;;9.85;5.70;;;;;;;6.21;73.17;99146.38;4998202;28;20037;-61
2021/11/23 10:26:32;;;;;;;11.60;6.22;;;;;;;6.82;78.54;99145.16;4990941;28;20055;-59
2021/11/23 10:29:06;;;;;;;10.25;4.50;;;;;;;7.92;97.50;99142.34;4992002;28;20036;-61
2021/11/23 10:31:33;;;;;;;9.07;4.63;;;;;;;8.73;83.53;99137.84;4990626;28;20626;-60
2021/11/23 10:34:12;;;;;;;11.80;6.45;;;;;;;7.52;81.09;99137.63;4989785;28;20042;-59
2021/11/23 10:36:44;;;;;;;11.77;6.25;;;;;;;6.98;72.08;99138.09;4989394;28;20030;-60
2021/11/23 10:39:14;;;;;;;11.70;6.30;;;;;;;6.22;68.64;99136.91;4991281;28;20034;-59
2021/11/23 10:41:43;;;;;;;9.75;6.00;;;;;;;5.89;72.41;99134.41;4988879;28;20053;-59
2021/11/23 10:44:21;;;;;;;8.13;3.95;;;;;;;9.01;79.84;99140.00;4992592;28;20413;-60
2021/11/23 10:46:57;;;;;;;7.60;5.07;;;;;;;7.69;75.90;99119.25;4991500;28;20037;-59
2021/11/23 10:49:28;;;;;;;8.20;3.67;;;;;;;8.40;91.94;99127.03;4990785;28;20038;-60
2021/11/23 10:51:54;;;;;;;6.25;4.13;;;;;;;9.06;82.40;99120.81;4989046;28;20935;-59
2021/11/23 10:54:19;;;;;;;8.82;4.47;;;;;;;8.70;65.03;99111.03;4987583;28;20134;-59
2021/11/23 10:56:54;;;;;;;7.53;3.10;;;;;;;9.98;74.90;99112.16;4991767;28;20124;-59
2021/11/23 10:59:19;;;;;;;6.20;3.40;;;;;;;9.63;89.15;99116.31;4989966;28;20077;-61
2021/11/23 11:01:45;;;;;;;6.18;3.60;;;;;;;9.94;79.12;99107.88;4991059;28;20038;-59
2021/11/23 11:04:14;;;;;;;10.88;5.40;;;;;;;6.63;74.76;99108.13;4989503;28;20077;-58
2021/11/23 11:06:40;;;;;;;16.30;5.50;;;;;;;6.04;70.35;99107.63;4988252;28;20041;-59
2021/11/23 11:09:07;;;;;;;8.60;4.85;;;;;;;8.18;70.49;99108.25;4990508;28;20030;-59
2021/11/23 11:11:33;;;;;;;9.85;5.32;;;;;;;7.00;75.08;99100.03;4990551;28;20493;-58
2021/11/23 11:13:59;;;;;;;7.80;4.38;;;;;;;8.00;73.11;99103.31;4987531;28;20613;-59
2021/11/23 11:16:24;;;;;;;6.47;3.15;;;;;;;9.27;93.83;99101.34;4988747;28;20606;-59
2021/11/23 11:19:05;;;;;;;8.60;4.95;;;;;;;8.49;64.98;99102.63;4988262;28;20488;-60
2021/11/23 11:21:31;;;;;;;8.48;4.90;;;;;;;7.52;65.89;99104.72;4989777;28;20038;-59
2021/11/23 11:24:24;;;;;;;10.50;5.10;;;;;;;6.89;73.56;99104.47;4989828;28;20057;-61
2021/11/23 11:26:54;;;;;;;9.30;5.10;;;;;;;7.08;71.17;99097.41;4985749;28;20385;-61